source [weather.noaa.gov]
TAF EDDP 211700Z 2118/2218 32020G35KT CAVOK BECMG 2118/2122 28012KT BECMG 2203/2206 27015G25KT PROB30 TEMPO 2209/2215 SHRA SCT035CB

TAF EDDC 211700Z 2118/2218 29010G25KT 9999 SCT020 TEMPO 2118/2120 30020G35KT BECMG 2119/2122 26009KT PROB40 TEMPO 2205/2209 RA BKN008 BECMG 2206/2208 27015G25KT PROB30 TEMPO 2208/2217 TSRA SCT030CB

TAF TAF EDDE 211700Z 2118/2218 32020G35KT CAVOK BECMG 2118/2122 28012KT BECMG 2203/2206 27015G25KT PROB30 TEMPO 2207/2213 SHRA SCT014CB